sensor_id;sensor_type;location;lat;lon;timestamp;pressure;altitude;pressure_sealevel;temperature;humidity
57594;BME280;43423;46.510;6.686;2023-03-15T00:01:52;96301.63;;;5.71;80.77
57594;BME280;43423;46.510;6.686;2023-03-15T00:04:18;96309.03;;;5.70;79.85
57594;BME280;43423;46.510;6.686;2023-03-15T00:06:46;96302.66;;;5.73;78.78
57594;BME280;43423;46.510;6.686;2023-03-15T00:09:11;96309.31;;;5.63;79.68
57594;BME280;43423;46.510;6.686;2023-03-15T00:11:37;96319.44;;;5.53;81.04
57594;BME280;43423;46.510;6.686;2023-03-15T00:14:02;96314.56;;;5.48;78.95
57594;BME280;43423;46.510;6.686;2023-03-15T00:16:29;96326.78;;;5.44;81.72
57594;BME280;43423;46.510;6.686;2023-03-15T00:18:57;96328.03;;;5.52;81.70
57594;BME280;43423;46.510;6.686;2023-03-15T00:21:23;96347.19;;;5.61;80.53
57594;BME280;43423;46.510;6.686;2023-03-15T00:23:49;96331.88;;;5.64;80.18
57594;BME280;43423;46.510;6.686;2023-03-15T00:26:15;96330.41;;;5.41;80.10
57594;BME280;43423;46.510;6.686;2023-03-15T00:28:40;96323.44;;;5.40;77.94
57594;BME280;43423;46.510;6.686;2023-03-15T00:31:13;96333.88;;;5.32;79.59
57594;BME280;43423;46.510;6.686;2023-03-15T00:33:38;96340.84;;;5.33;78.07
57594;BME280;43423;46.510;6.686;2023-03-15T00:36:05;96330.28;;;5.44;75.54
57594;BME280;43423;46.510;6.686;2023-03-15T00:38:35;96347.38;;;5.45;73.82
57594;BME280;43423;46.510;6.686;2023-03-15T00:41:06;96340.03;;;5.54;71.48
57594;BME280;43423;46.510;6.686;2023-03-15T00:43:31;96335.06;;;5.62;70.36
57594;BME280;43423;46.510;6.686;2023-03-15T00:45:58;96347.47;;;5.54;70.80
57594;BME280;43423;46.510;6.686;2023-03-15T00:48:23;96356.44;;;5.64;73.25
57594;BME280;43423;46.510;6.686;2023-03-15T00:50:49;96357.19;;;5.33;77.22
57594;BME280;43423;46.510;6.686;2023-03-15T00:53:14;96365.31;;;5.46;76.47
57594;BME280;43423;46.510;6.686;2023-03-15T00:55:40;96359.50;;;5.44;77.47
57594;BME280;43423;46.510;6.686;2023-03-15T00:58:07;96355.53;;;5.67;73.34
57594;BME280;43423;46.510;6.686;2023-03-15T01:00:32;96368.44;;;5.44;78.74
57594;BME280;43423;46.510;6.686;2023-03-15T01:02:58;96372.34;;;5.34;79.68
57594;BME280;43423;46.510;6.686;2023-03-15T01:05:24;96378.34;;;5.29;78.86
57594;BME280;43423;46.510;6.686;2023-03-15T01:07:51;96375.47;;;5.23;80.54
57594;BME280;43423;46.510;6.686;2023-03-15T01:10:17;96377.88;;;5.21;82.39
57594;BME280;43423;46.510;6.686;2023-03-15T01:12:44;96387.22;;;5.42;79.46
57594;BME280;43423;46.510;6.686;2023-03-15T01:15:12;96386.41;;;5.32;77.66
57594;BME280;43423;46.510;6.686;2023-03-15T01:17:39;96393.94;;;5.50;77.26
57594;BME280;43423;46.510;6.686;2023-03-15T01:20:05;96384.06;;;5.44;75.40
57594;BME280;43423;46.510;6.686;2023-03-15T01:22:31;96396.88;;;5.34;78.28
57594;BME280;43423;46.510;6.686;2023-03-15T01:24:57;96382.13;;;5.22;80.43
57594;BME280;43423;46.510;6.686;2023-03-15T01:27:22;96383.94;;;5.25;78.51
57594;BME280;43423;46.510;6.686;2023-03-15T01:29:48;96391.56;;;5.09;78.81
57594;BME280;43423;46.510;6.686;2023-03-15T01:32:13;96395.34;;;5.11;78.75
57594;BME280;43423;46.510;6.686;2023-03-15T01:34:39;96391.16;;;5.19;78.87
57594;BME280;43423;46.510;6.686;2023-03-15T01:37:05;96390.31;;;5.22;77.98
57594;BME280;43423;46.510;6.686;2023-03-15T01:39:30;96392.38;;;5.18;76.08
57594;BME280;43423;46.510;6.686;2023-03-15T01:41:56;96382.53;;;5.21;75.98
57594;BME280;43423;46.510;6.686;2023-03-15T01:44:22;96361.84;;;5.01;76.96
57594;BME280;43423;46.510;6.686;2023-03-15T01:46:48;96385.66;;;5.10;76.64
57594;BME280;43423;46.510;6.686;2023-03-15T01:49:17;96385.09;;;5.15;73.56
57594;BME280;43423;46.510;6.686;2023-03-15T01:51:52;96379.91;;;5.08;74.49
57594;BME280;43423;46.510;6.686;2023-03-15T01:54:33;96388.63;;;5.03;73.33
57594;BME280;43423;46.510;6.686;2023-03-15T01:57:05;96383.56;;;4.92;73.34
57594;BME280;43423;46.510;6.686;2023-03-15T01:59:35;96379.81;;;4.77;72.66
57594;BME280;43423;46.510;6.686;2023-03-15T02:02:02;96384.88;;;4.88;68.81
57594;BME280;43423;46.510;6.686;2023-03-15T02:04:33;96373.75;;;4.95;67.23
57594;BME280;43423;46.510;6.686;2023-03-15T02:07:00;96377.97;;;4.96;69.27
57594;BME280;43423;46.510;6.686;2023-03-15T02:09:34;96372.25;;;4.81;71.26
57594;BME280;43423;46.510;6.686;2023-03-15T02:12:00;96373.44;;;4.93;68.90
57594;BME280;43423;46.510;6.686;2023-03-15T02:14:26;96373.53;;;4.89;71.17
57594;BME280;43423;46.510;6.686;2023-03-15T02:16:54;96371.00;;;4.95;69.23
57594;BME280;43423;46.510;6.686;2023-03-15T02:20:07;96375.09;;;4.90;68.78
57594;BME280;43423;46.510;6.686;2023-03-15T02:22:49;96374.94;;;4.94;68.25
57594;BME280;43423;46.510;6.686;2023-03-15T02:25:34;96368.75;;;4.93;68.39
57594;BME280;43423;46.510;6.686;2023-03-15T02:28:03;96369.50;;;4.94;69.65
57594;BME280;43423;46.510;6.686;2023-03-15T02:30:30;96372.97;;;4.94;70.07
57594;BME280;43423;46.510;6.686;2023-03-15T02:32:57;96367.34;;;4.89;69.40
57594;BME280;43423;46.510;6.686;2023-03-15T02:35:29;96366.31;;;4.95;70.28
57594;BME280;43423;46.510;6.686;2023-03-15T02:37:56;96369.75;;;4.87;72.13
57594;BME280;43423;46.510;6.686;2023-03-15T02:40:24;96366.31;;;4.73;73.02
57594;BME280;43423;46.510;6.686;2023-03-15T02:42:55;96367.84;;;4.74;73.39
57594;BME280;43423;46.510;6.686;2023-03-15T02:45:22;96366.06;;;4.59;73.88
57594;BME280;43423;46.510;6.686;2023-03-15T02:47:50;96369.72;;;4.65;71.79
57594;BME280;43423;46.510;6.686;2023-03-15T02:50:16;96375.75;;;4.47;72.40
57594;BME280;43423;46.510;6.686;2023-03-15T02:52:41;96371.31;;;4.40;73.71
57594;BME280;43423;46.510;6.686;2023-03-15T02:55:07;96374.59;;;4.35;74.68
57594;BME280;43423;46.510;6.686;2023-03-15T02:57:34;96387.25;;;4.29;75.08
57594;BME280;43423;46.510;6.686;2023-03-15T02:59:59;96381.59;;;4.24;73.82
57594;BME280;43423;46.510;6.686;2023-03-15T03:02:31;96385.94;;;4.08;75.13
57594;BME280;43423;46.510;6.686;2023-03-15T03:04:56;96393.81;;;4.06;76.71
57594;BME280;43423;46.510;6.686;2023-03-15T03:07:22;96391.97;;;4.03;75.21
57594;BME280;43423;46.510;6.686;2023-03-15T03:09:47;96401.19;;;3.93;76.16
57594;BME280;43423;46.510;6.686;2023-03-15T03:12:13;96399.03;;;3.88;74.73
57594;BME280;43423;46.510;6.686;2023-03-15T03:14:38;96410.88;;;3.81;76.16
57594;BME280;43423;46.510;6.686;2023-03-15T03:17:04;96399.78;;;3.76;75.56
57594;BME280;43423;46.510;6.686;2023-03-15T03:19:29;96399.69;;;3.79;76.56
57594;BME280;43423;46.510;6.686;2023-03-15T03:21:55;96406.75;;;3.77;76.90
57594;BME280;43423;46.510;6.686;2023-03-15T03:24:21;96403.69;;;3.75;76.28
57594;BME280;43423;46.510;6.686;2023-03-15T03:26:49;96401.44;;;3.73;75.38
57594;BME280;43423;46.510;6.686;2023-03-15T03:29:15;96405.13;;;3.79;74.23
57594;BME280;43423;46.510;6.686;2023-03-15T03:31:41;96407.84;;;3.67;74.53
57594;BME280;43423;46.510;6.686;2023-03-15T03:34:07;96410.44;;;3.57;75.59
57594;BME280;43423;46.510;6.686;2023-03-15T03:36:33;96410.09;;;3.55;75.32
57594;BME280;43423;46.510;6.686;2023-03-15T03:38:59;96422.03;;;3.45;74.11
57594;BME280;43423;46.510;6.686;2023-03-15T03:41:25;96415.53;;;3.55;71.74
57594;BME280;43423;46.510;6.686;2023-03-15T03:43:51;96423.78;;;3.52;71.85
57594;BME280;43423;46.510;6.686;2023-03-15T03:46:17;96400.94;;;3.36;72.15
57594;BME280;43423;46.510;6.686;2023-03-15T03:48:43;96425.50;;;3.46;71.44
57594;BME280;43423;46.510;6.686;2023-03-15T03:51:11;96435.94;;;3.34;71.25
57594;BME280;43423;46.510;6.686;2023-03-15T03:53:37;96431.19;;;3.51;72.24
57594;BME280;43423;46.510;6.686;2023-03-15T03:56:06;96432.47;;;3.47;72.12
57594;BME280;43423;46.510;6.686;2023-03-15T03:58:32;96435.09;;;3.50;72.13
57594;BME280;43423;46.510;6.686;2023-03-15T04:00:58;96436.50;;;3.42;72.96
57594;BME280;43423;46.510;6.686;2023-03-15T04:03:24;96448.31;;;3.35;72.37
57594;BME280;43423;46.510;6.686;2023-03-15T04:05:54;96442.22;;;3.31;74.64
57594;BME280;43423;46.510;6.686;2023-03-15T04:08:20;96441.13;;;3.29;73.39
57594;BME280;43423;46.510;6.686;2023-03-15T04:10:54;96438.59;;;3.22;73.68
57594;BME280;43423;46.510;6.686;2023-03-15T04:13:20;96440.31;;;3.16;74.30
57594;BME280;43423;46.510;6.686;2023-03-15T04:15:47;96439.66;;;3.12;75.56
57594;BME280;43423;46.510;6.686;2023-03-15T04:18:13;96433.34;;;3.02;74.53
57594;BME280;43423;46.510;6.686;2023-03-15T04:20:39;96438.16;;;3.11;74.32
57594;BME280;43423;46.510;6.686;2023-03-15T04:23:16;96430.06;;;3.07;74.30
57594;BME280;43423;46.510;6.686;2023-03-15T04:25:47;96436.81;;;3.02;75.17
57594;BME280;43423;46.510;6.686;2023-03-15T04:28:13;96436.06;;;3.02;74.56
57594;BME280;43423;46.510;6.686;2023-03-15T04:30:38;96439.97;;;3.01;74.95
57594;BME280;43423;46.510;6.686;2023-03-15T04:33:04;96445.16;;;2.95;75.61
57594;BME280;43423;46.510;6.686;2023-03-15T04:35:32;96444.28;;;2.98;75.14
57594;BME280;43423;46.510;6.686;2023-03-15T04:37:58;96454.66;;;2.87;74.67
57594;BME280;43423;46.510;6.686;2023-03-15T04:40:24;96442.00;;;2.97;73.41
57594;BME280;43423;46.510;6.686;2023-03-15T04:42:54;96438.41;;;3.00;72.01
57594;BME280;43423;46.510;6.686;2023-03-15T04:45:23;96443.63;;;2.94;70.99
57594;BME280;43423;46.510;6.686;2023-03-15T04:47:51;96449.97;;;3.04;71.16
57594;BME280;43423;46.510;6.686;2023-03-15T04:50:17;96443.94;;;2.96;71.36
57594;BME280;43423;46.510;6.686;2023-03-15T04:52:43;96449.38;;;2.96;70.39
57594;BME280;43423;46.510;6.686;2023-03-15T04:55:08;96444.66;;;2.84;70.37
57594;BME280;43423;46.510;6.686;2023-03-15T04:57:34;96438.44;;;2.84;71.07
57594;BME280;43423;46.510;6.686;2023-03-15T05:00:00;96455.09;;;2.86;71.69
57594;BME280;43423;46.510;6.686;2023-03-15T05:02:26;96454.59;;;2.74;71.56
57594;BME280;43423;46.510;6.686;2023-03-15T05:04:51;96460.59;;;2.82;70.31
57594;BME280;43423;46.510;6.686;2023-03-15T05:07:17;96469.00;;;2.88;69.13
57594;BME280;43423;46.510;6.686;2023-03-15T05:09:43;96473.00;;;2.83;68.51
57594;BME280;43423;46.510;6.686;2023-03-15T05:12:12;96473.34;;;2.85;69.38
57594;BME280;43423;46.510;6.686;2023-03-15T05:14:37;96479.63;;;2.66;73.16
57594;BME280;43423;46.510;6.686;2023-03-15T05:17:03;96488.09;;;2.68;72.85
57594;BME280;43423;46.510;6.686;2023-03-15T05:19:30;96487.94;;;2.59;73.25
57594;BME280;43423;46.510;6.686;2023-03-15T05:22:00;96495.16;;;2.65;72.71
57594;BME280;43423;46.510;6.686;2023-03-15T05:24:25;96490.00;;;2.55;72.44
57594;BME280;43423;46.510;6.686;2023-03-15T05:26:51;96496.50;;;2.73;68.21
57594;BME280;43423;46.510;6.686;2023-03-15T05:29:19;96502.53;;;2.48;71.72
57594;BME280;43423;46.510;6.686;2023-03-15T05:31:47;96500.69;;;2.45;73.08
57594;BME280;43423;46.510;6.686;2023-03-15T05:34:12;96504.38;;;2.35;72.30
57594;BME280;43423;46.510;6.686;2023-03-15T05:36:38;96510.59;;;2.36;71.92
57594;BME280;43423;46.510;6.686;2023-03-15T05:39:03;96504.91;;;2.30;73.08
57594;BME280;43423;46.510;6.686;2023-03-15T05:41:30;96518.38;;;2.17;72.42
57594;BME280;43423;46.510;6.686;2023-03-15T05:43:55;96511.84;;;2.15;72.22
57594;BME280;43423;46.510;6.686;2023-03-15T05:46:21;96506.78;;;1.97;72.16
57594;BME280;43423;46.510;6.686;2023-03-15T05:48:48;96515.16;;;2.22;72.98
57594;BME280;43423;46.510;6.686;2023-03-15T05:51:14;96526.25;;;2.28;72.99
57594;BME280;43423;46.510;6.686;2023-03-15T05:53:40;96527.88;;;2.26;74.01
57594;BME280;43423;46.510;6.686;2023-03-15T05:56:06;96507.63;;;2.30;73.48
57594;BME280;43423;46.510;6.686;2023-03-15T05:58:32;96518.13;;;2.28;73.71
57594;BME280;43423;46.510;6.686;2023-03-15T06:00:58;96524.81;;;2.23;74.38
57594;BME280;43423;46.510;6.686;2023-03-15T06:03:26;96530.75;;;2.18;74.99
57594;BME280;43423;46.510;6.686;2023-03-15T06:05:52;96521.28;;;1.90;73.40
57594;BME280;43423;46.510;6.686;2023-03-15T06:08:18;96525.47;;;1.75;73.67
57594;BME280;43423;46.510;6.686;2023-03-15T06:10:44;96521.94;;;1.94;74.30
57594;BME280;43423;46.510;6.686;2023-03-15T06:13:09;96521.16;;;2.14;73.90
57594;BME280;43423;46.510;6.686;2023-03-15T06:15:35;96519.31;;;2.27;73.64
57594;BME280;43423;46.510;6.686;2023-03-15T06:18:00;96524.88;;;2.20;72.45
57594;BME280;43423;46.510;6.686;2023-03-15T06:20:26;96521.59;;;2.29;69.73
57594;BME280;43423;46.510;6.686;2023-03-15T06:22:52;96523.50;;;2.12;71.01
57594;BME280;43423;46.510;6.686;2023-03-15T06:25:18;96523.97;;;2.27;69.87
57594;BME280;43423;46.510;6.686;2023-03-15T06:27:43;96537.25;;;2.21;70.58
57594;BME280;43423;46.510;6.686;2023-03-15T06:30:09;96539.00;;;2.31;70.53
57594;BME280;43423;46.510;6.686;2023-03-15T06:32:35;96544.34;;;2.35;69.48
57594;BME280;43423;46.510;6.686;2023-03-15T06:35:00;96547.81;;;2.35;69.70
57594;BME280;43423;46.510;6.686;2023-03-15T06:37:26;96547.06;;;2.51;68.42
57594;BME280;43423;46.510;6.686;2023-03-15T06:39:51;96564.88;;;2.68;68.34
57594;BME280;43423;46.510;6.686;2023-03-15T06:42:18;96556.25;;;2.90;67.47
57594;BME280;43423;46.510;6.686;2023-03-15T06:44:44;96556.94;;;2.94;66.79
57594;BME280;43423;46.510;6.686;2023-03-15T06:47:11;96556.66;;;3.04;66.06
57594;BME280;43423;46.510;6.686;2023-03-15T06:49:37;96564.78;;;3.21;66.34
57594;BME280;43423;46.510;6.686;2023-03-15T06:52:03;96568.56;;;3.40;66.61
57594;BME280;43423;46.510;6.686;2023-03-15T06:54:30;96567.56;;;3.50;66.24
57594;BME280;43423;46.510;6.686;2023-03-15T06:56:55;96580.03;;;3.76;66.52
57594;BME280;43423;46.510;6.686;2023-03-15T06:59:21;96579.59;;;4.07;64.56
57594;BME280;43423;46.510;6.686;2023-03-15T07:01:47;96581.22;;;4.04;64.35
57594;BME280;43423;46.510;6.686;2023-03-15T07:04:13;96580.72;;;4.35;64.28
57594;BME280;43423;46.510;6.686;2023-03-15T07:06:38;96585.72;;;4.49;63.84
57594;BME280;43423;46.510;6.686;2023-03-15T07:09:04;96584.66;;;4.46;62.49
57594;BME280;43423;46.510;6.686;2023-03-15T07:11:31;96594.47;;;4.69;62.63
57594;BME280;43423;46.510;6.686;2023-03-15T07:13:56;96587.06;;;4.83;61.44
57594;BME280;43423;46.510;6.686;2023-03-15T07:16:23;96600.97;;;5.10;62.15
57594;BME280;43423;46.510;6.686;2023-03-15T07:18:49;96609.06;;;5.01;61.54
57594;BME280;43423;46.510;6.686;2023-03-15T07:21:15;96600.88;;;5.61;62.28
57594;BME280;43423;46.510;6.686;2023-03-15T07:23:41;96605.88;;;5.97;61.35
57594;BME280;43423;46.510;6.686;2023-03-15T07:26:06;96614.06;;;6.19;61.49
57594;BME280;43423;46.510;6.686;2023-03-15T07:28:32;96616.91;;;6.15;59.33
57594;BME280;43423;46.510;6.686;2023-03-15T07:30:59;96613.53;;;6.33;60.00
57594;BME280;43423;46.510;6.686;2023-03-15T07:33:28;96614.47;;;6.39;58.41
57594;BME280;43423;46.510;6.686;2023-03-15T07:35:54;96621.19;;;6.48;59.04
57594;BME280;43423;46.510;6.686;2023-03-15T07:38:25;96628.59;;;6.69;58.58
57594;BME280;43423;46.510;6.686;2023-03-15T07:40:51;96619.44;;;6.94;58.17
57594;BME280;43423;46.510;6.686;2023-03-15T07:43:17;96620.75;;;6.80;59.35
57594;BME280;43423;46.510;6.686;2023-03-15T07:45:43;96624.41;;;6.86;59.62
57594;BME280;43423;46.510;6.686;2023-03-15T07:48:08;96623.59;;;7.08;58.18
57594;BME280;43423;46.510;6.686;2023-03-15T07:50:34;96632.56;;;7.17;60.20
57594;BME280;43423;46.510;6.686;2023-03-15T07:53:03;96638.41;;;7.28;61.78
57594;BME280;43423;46.510;6.686;2023-03-15T07:55:28;96624.22;;;7.12;61.01
57594;BME280;43423;46.510;6.686;2023-03-15T07:57:54;96625.53;;;6.98;61.06
57594;BME280;43423;46.510;6.686;2023-03-15T08:00:20;96637.28;;;7.17;61.53
57594;BME280;43423;46.510;6.686;2023-03-15T08:02:46;96643.66;;;7.14;62.81
57594;BME280;43423;46.510;6.686;2023-03-15T08:05:12;96640.34;;;7.19;62.62
57594;BME280;43423;46.510;6.686;2023-03-15T08:07:37;96654.94;;;7.25;62.10
57594;BME280;43423;46.510;6.686;2023-03-15T08:10:03;96649.06;;;7.45;61.11
57594;BME280;43423;46.510;6.686;2023-03-15T08:12:31;96651.03;;;7.35;61.78
57594;BME280;43423;46.510;6.686;2023-03-15T08:14:57;96658.03;;;7.45;61.22
57594;BME280;43423;46.510;6.686;2023-03-15T08:17:23;96640.41;;;7.37;60.86
57594;BME280;43423;46.510;6.686;2023-03-15T08:19:48;96645.50;;;7.26;60.40
57594;BME280;43423;46.510;6.686;2023-03-15T08:22:14;96644.84;;;7.62;61.33
57594;BME280;43423;46.510;6.686;2023-03-15T08:24:40;96644.22;;;7.49;61.54
57594;BME280;43423;46.510;6.686;2023-03-15T08:27:06;96634.81;;;7.77;59.98
57594;BME280;43423;46.510;6.686;2023-03-15T08:29:32;96645.34;;;8.06;59.21
57594;BME280;43423;46.510;6.686;2023-03-15T08:31:57;96648.38;;;7.90;60.31
57594;BME280;43423;46.510;6.686;2023-03-15T08:34:23;96645.47;;;8.12;58.95
57594;BME280;43423;46.510;6.686;2023-03-15T08:36:49;96647.91;;;8.10;57.79
57594;BME280;43423;46.510;6.686;2023-03-15T08:39:15;96640.00;;;8.03;57.68
57594;BME280;43423;46.510;6.686;2023-03-15T08:41:41;96639.41;;;8.17;58.88
57594;BME280;43423;46.510;6.686;2023-03-15T08:44:08;96644.13;;;8.35;57.70
57594;BME280;43423;46.510;6.686;2023-03-15T08:46:34;96647.91;;;8.56;57.68
57594;BME280;43423;46.510;6.686;2023-03-15T08:49:01;96651.09;;;8.54;56.74
57594;BME280;43423;46.510;6.686;2023-03-15T08:51:27;96651.22;;;8.60;56.06
57594;BME280;43423;46.510;6.686;2023-03-15T08:53:53;96651.56;;;8.44;55.93
57594;BME280;43423;46.510;6.686;2023-03-15T08:56:19;96646.38;;;8.18;57.61
57594;BME280;43423;46.510;6.686;2023-03-15T08:58:45;96654.75;;;8.33;57.16
57594;BME280;43423;46.510;6.686;2023-03-15T09:01:11;96655.22;;;8.22;56.29
57594;BME280;43423;46.510;6.686;2023-03-15T09:03:37;96656.41;;;8.21;58.27
57594;BME280;43423;46.510;6.686;2023-03-15T09:06:03;96657.34;;;8.09;56.72
57594;BME280;43423;46.510;6.686;2023-03-15T09:08:29;96645.94;;;8.20;57.08
57594;BME280;43423;46.510;6.686;2023-03-15T09:10:58;96650.06;;;8.15;56.05
57594;BME280;43423;46.510;6.686;2023-03-15T09:13:24;96660.09;;;8.36;56.92
57594;BME280;43423;46.510;6.686;2023-03-15T09:15:51;96658.69;;;8.59;56.85
57594;BME280;43423;46.510;6.686;2023-03-15T09:18:17;96665.84;;;8.57;54.67
57594;BME280;43423;46.510;6.686;2023-03-15T09:20:43;96667.25;;;8.43;54.09
57594;BME280;43423;46.510;6.686;2023-03-15T09:23:09;96669.19;;;8.70;54.01
57594;BME280;43423;46.510;6.686;2023-03-15T09:25:34;96671.03;;;8.64;53.43
57594;BME280;43423;46.510;6.686;2023-03-15T09:28:02;96666.75;;;8.72;53.66
57594;BME280;43423;46.510;6.686;2023-03-15T09:30:28;96666.56;;;8.85;53.40
57594;BME280;43423;46.510;6.686;2023-03-15T09:32:53;96675.44;;;8.71;53.43
57594;BME280;43423;46.510;6.686;2023-03-15T09:35:19;96673.88;;;8.79;52.01
57594;BME280;43423;46.510;6.686;2023-03-15T09:37:46;96673.91;;;8.70;52.11
57594;BME280;43423;46.510;6.686;2023-03-15T09:40:18;96677.25;;;8.74;52.50
57594;BME280;43423;46.510;6.686;2023-03-15T09:42:56;96674.78;;;8.85;49.70
57594;BME280;43423;46.510;6.686;2023-03-15T09:48:03;96683.00;;;8.76;52.07
57594;BME280;43423;46.510;6.686;2023-03-15T09:50:33;96683.69;;;8.43;53.59
57594;BME280;43423;46.510;6.686;2023-03-15T09:53:09;96673.47;;;8.34;54.72
57594;BME280;43423;46.510;6.686;2023-03-15T09:55:36;96679.72;;;8.62;54.03
57594;BME280;43423;46.510;6.686;2023-03-15T09:58:10;96678.78;;;8.65;51.66
57594;BME280;43423;46.510;6.686;2023-03-15T10:00:55;96671.50;;;8.53;49.14
57594;BME280;43423;46.510;6.686;2023-03-15T10:03:30;96679.25;;;8.64;51.29
57594;BME280;43423;46.510;6.686;2023-03-15T10:06:11;96674.66;;;8.70;50.45
57594;BME280;43423;46.510;6.686;2023-03-15T10:08:40;96678.19;;;8.43;50.51
57594;BME280;43423;46.510;6.686;2023-03-15T10:11:24;96677.41;;;8.61;49.51
57594;BME280;43423;46.510;6.686;2023-03-15T10:16:43;96684.25;;;8.65;50.96
57594;BME280;43423;46.510;6.686;2023-03-15T10:19:35;96678.69;;;9.02;50.58
57594;BME280;43423;46.510;6.686;2023-03-15T10:22:18;96682.09;;;8.88;50.87
57594;BME280;43423;46.510;6.686;2023-03-15T10:24:52;96681.63;;;8.89;48.60
57594;BME280;43423;46.510;6.686;2023-03-15T10:27:23;96685.63;;;9.21;46.50
57594;BME280;43423;46.510;6.686;2023-03-15T10:29:52;96684.91;;;9.12;47.35
57594;BME280;43423;46.510;6.686;2023-03-15T10:32:21;96689.56;;;8.87;48.68
57594;BME280;43423;46.510;6.686;2023-03-15T10:34:51;96679.59;;;8.99;45.79
57594;BME280;43423;46.510;6.686;2023-03-15T10:37:18;96684.44;;;9.13;48.46
57594;BME280;43423;46.510;6.686;2023-03-15T10:39:47;96674.72;;;9.36;47.76
57594;BME280;43423;46.510;6.686;2023-03-15T10:42:29;96678.50;;;9.06;47.37
57594;BME280;43423;46.510;6.686;2023-03-15T10:44:55;96675.63;;;9.00;46.15
57594;BME280;43423;46.510;6.686;2023-03-15T10:47:22;96675.66;;;8.91;47.88
57594;BME280;43423;46.510;6.686;2023-03-15T10:49:49;96677.19;;;9.01;47.83
57594;BME280;43423;46.510;6.686;2023-03-15T10:52:37;96684.25;;;8.65;48.13
57594;BME280;43423;46.510;6.686;2023-03-15T10:55:11;96673.78;;;9.06;47.69
57594;BME280;43423;46.510;6.686;2023-03-15T10:57:41;96670.38;;;9.20;49.30
57594;BME280;43423;46.510;6.686;2023-03-15T11:00:20;96674.97;;;9.47;47.58
57594;BME280;43423;46.510;6.686;2023-03-15T11:03:00;96666.53;;;9.27;47.69
57594;BME280;43423;46.510;6.686;2023-03-15T11:05:42;96667.84;;;9.41;47.13
57594;BME280;43423;46.510;6.686;2023-03-15T11:08:17;96667.47;;;9.57;47.08
57594;BME280;43423;46.510;6.686;2023-03-15T11:10:44;96657.72;;;9.56;46.69
57594;BME280;43423;46.510;6.686;2023-03-15T11:13:22;96653.06;;;9.38;46.24
57594;BME280;43423;46.510;6.686;2023-03-15T11:15:55;96660.44;;;9.32;50.21
57594;BME280;43423;46.510;6.686;2023-03-15T11:18:27;96655.41;;;9.78;46.98
57594;BME280;43423;46.510;6.686;2023-03-15T11:20:54;96654.25;;;9.70;46.41
57594;BME280;43423;46.510;6.686;2023-03-15T11:23:24;96646.19;;;9.67;48.15
57594;BME280;43423;46.510;6.686;2023-03-15T11:25:52;96646.53;;;9.60;45.42
57594;BME280;43423;46.510;6.686;2023-03-15T11:28:21;96653.75;;;9.57;47.50
57594;BME280;43423;46.510;6.686;2023-03-15T11:30:48;96649.81;;;9.49;47.68
57594;BME280;43423;46.510;6.686;2023-03-15T11:33:37;96636.38;;;9.51;46.04
57594;BME280;43423;46.510;6.686;2023-03-15T11:36:06;96639.94;;;9.42;44.82
57594;BME280;43423;46.510;6.686;2023-03-15T11:38:51;96637.63;;;9.74;43.37
57594;BME280;43423;46.510;6.686;2023-03-15T11:41:28;96630.50;;;10.06;41.95
57594;BME280;43423;46.510;6.686;2023-03-15T11:47:00;96620.72;;;9.66;45.03
57594;BME280;43423;46.510;6.686;2023-03-15T11:49:34;96622.03;;;9.56;46.10
57594;BME280;43423;46.510;6.686;2023-03-15T11:52:02;96618.63;;;9.61;46.45
57594;BME280;43423;46.510;6.686;2023-03-15T11:54:29;96620.38;;;9.73;47.44
57594;BME280;43423;46.510;6.686;2023-03-15T11:57:02;96618.06;;;9.57;46.77
57594;BME280;43423;46.510;6.686;2023-03-15T11:59:30;96615.38;;;9.48;44.21
57594;BME280;43423;46.510;6.686;2023-03-15T12:07:03;96612.06;;;10.21;42.62
57594;BME280;43423;46.510;6.686;2023-03-15T12:12:32;96613.31;;;10.50;40.12
57594;BME280;43423;46.510;6.686;2023-03-15T12:20:17;96593.31;;;10.49;40.32
57594;BME280;43423;46.510;6.686;2023-03-15T12:22:52;96595.72;;;10.03;39.63
57594;BME280;43423;46.510;6.686;2023-03-15T12:25:34;96595.06;;;10.08;38.42
57594;BME280;43423;46.510;6.686;2023-03-15T12:28:06;96593.22;;;10.29;40.38
57594;BME280;43423;46.510;6.686;2023-03-15T12:30:41;96594.38;;;10.37;38.74
57594;BME280;43423;46.510;6.686;2023-03-15T12:33:17;96591.28;;;10.05;37.17
57594;BME280;43423;46.510;6.686;2023-03-15T12:35:44;96581.22;;;9.88;42.03
57594;BME280;43423;46.510;6.686;2023-03-15T12:38:21;96583.88;;;9.97;40.96
57594;BME280;43423;46.510;6.686;2023-03-15T12:40:54;96583.88;;;9.97;42.03
57594;BME280;43423;46.510;6.686;2023-03-15T12:49:12;96570.63;;;10.10;37.99
57594;BME280;43423;46.510;6.686;2023-03-15T12:51:55;96572.06;;;10.20;38.25
57594;BME280;43423;46.510;6.686;2023-03-15T12:54:23;96567.81;;;10.34;39.55
57594;BME280;43423;46.510;6.686;2023-03-15T12:57:01;96564.75;;;10.17;37.64
57594;BME280;43423;46.510;6.686;2023-03-15T12:59:50;96564.91;;;9.84;39.72
57594;BME280;43423;46.510;6.686;2023-03-15T13:02:29;96563.44;;;9.98;40.48
57594;BME280;43423;46.510;6.686;2023-03-15T13:05:27;96558.97;;;10.15;39.57
57594;BME280;43423;46.510;6.686;2023-03-15T13:15:31;96553.44;;;9.86;38.71
57594;BME280;43423;46.510;6.686;2023-03-15T13:18:16;96553.31;;;10.33;39.89
57594;BME280;43423;46.510;6.686;2023-03-15T13:21:15;96549.88;;;10.09;40.42
57594;BME280;43423;46.510;6.686;2023-03-15T13:23:49;96559.97;;;10.27;36.15
57594;BME280;43423;46.510;6.686;2023-03-15T13:26:41;96548.69;;;10.25;40.55
57594;BME280;43423;46.510;6.686;2023-03-15T13:29:12;96552.44;;;10.13;38.78
57594;BME280;43423;46.510;6.686;2023-03-15T13:31:39;96539.31;;;10.31;38.88
57594;BME280;43423;46.510;6.686;2023-03-15T13:34:15;96547.75;;;10.43;40.35
57594;BME280;43423;46.510;6.686;2023-03-15T13:36:44;96550.00;;;10.59;38.45
57594;BME280;43423;46.510;6.686;2023-03-15T13:39:17;96550.56;;;10.48;39.47
57594;BME280;43423;46.510;6.686;2023-03-15T13:41:43;96558.75;;;10.43;35.78
57594;BME280;43423;46.510;6.686;2023-03-15T13:44:17;96562.91;;;10.53;37.75
57594;BME280;43423;46.510;6.686;2023-03-15T13:46:43;96555.41;;;10.53;36.96
57594;BME280;43423;46.510;6.686;2023-03-15T13:49:10;96550.94;;;10.41;38.77
57594;BME280;43423;46.510;6.686;2023-03-15T13:51:37;96554.81;;;10.64;36.84
57594;BME280;43423;46.510;6.686;2023-03-15T13:59:37;96545.78;;;11.13;33.74